createdAt,value
2016-10-21T00:00:55.419Z,8.52
2016-10-21T00:01:55.383Z,8.55
2016-10-21T00:02:55.342Z,8.59
2016-10-21T00:03:55.305Z,8.53
2016-10-21T00:04:55.267Z,8.59
2016-10-21T00:05:55.227Z,8.52
2016-10-21T00:06:55.226Z,8.58
2016-10-21T00:07:54.857Z,8.62
2016-10-21T00:08:55.113Z,8.56
2016-10-21T00:09:55.075Z,8.61
2016-10-21T00:10:54.739Z,8.68
2016-10-21T00:11:54.743Z,8.65
2016-10-21T00:12:54.965Z,8.62
2016-10-21T00:13:54.918Z,8.63
2016-10-21T00:14:54.886Z,8.56
2016-10-21T00:15:54.847Z,8.61
2016-10-21T00:16:54.511Z,8.68
2016-10-21T00:17:54.467Z,8.65
2016-10-21T00:18:54.125Z,8.62
2016-10-21T00:19:54.698Z,8.66
2016-10-21T00:20:54.658Z,8.59
2016-10-21T00:21:54.656Z,8.65
2016-10-21T00:22:54.591Z,8.62
2016-10-21T00:23:54.546Z,8.58
2016-10-21T00:24:54.199Z,8.59
2016-10-21T00:25:54.464Z,8.59
2016-10-21T00:26:54.426Z,8.58
2016-10-21T00:27:54.084Z,8.62
2016-10-21T00:28:54.047Z,8.63
2016-10-21T00:29:54.008Z,8.56
2016-10-21T00:30:53.711Z,8.62
2016-10-21T00:31:54.233Z,8.58
2016-10-21T00:32:54.207Z,8.61
2016-10-21T00:33:53.558Z,8.61
2016-10-21T00:34:54.124Z,8.62
2016-10-21T00:35:54.085Z,8.58
2016-10-21T00:36:54.047Z,8.59
2016-10-21T00:37:53.704Z,8.58
2016-10-21T00:38:53.968Z,8.55
2016-10-21T00:39:53.932Z,8.59
2016-10-21T00:40:53.586Z,8.65
2016-10-21T00:41:53.855Z,8.59
2016-10-21T00:42:53.816Z,8.61
2016-10-21T00:43:53.477Z,8.59
2016-10-21T00:44:53.439Z,8.55
2016-10-21T00:45:53.401Z,8.58
2016-10-21T00:46:53.359Z,8.53
2016-10-21T00:47:53.321Z,8.65
2016-10-21T00:48:53.283Z,8.52
2016-10-21T00:49:53.548Z,8.56
2016-10-21T00:50:53.549Z,8.52
2016-10-21T00:51:53.176Z,8.68
2016-10-21T00:52:53.435Z,8.55
2016-10-21T00:53:53.394Z,8.63
2016-10-21T00:54:53.361Z,8.56
2016-10-21T00:55:53.020Z,8.59
2016-10-21T00:56:53.281Z,8.61
2016-10-21T00:57:52.943Z,8.62
2016-10-21T00:58:52.906Z,8.58
2016-10-21T00:59:53.167Z,8.61
2016-10-21T01:00:52.828Z,8.58
2016-10-21T01:01:53.095Z,8.58
2016-10-21T01:02:53.059Z,8.58
2016-10-21T01:03:52.724Z,8.59
2016-10-21T01:04:52.680Z,8.58
2016-10-21T01:05:52.636Z,8.59
2016-10-21T01:06:52.300Z,8.53
2016-10-21T01:07:52.871Z,8.55
2016-10-21T01:08:52.524Z,8.53
2016-10-21T01:09:52.488Z,8.53
2016-10-21T01:10:52.751Z,8.56
2016-10-21T01:11:52.414Z,8.55
2016-10-21T01:12:52.369Z,8.53
2016-10-21T01:13:52.634Z,8.58
2016-10-21T01:14:52.296Z,8.56
2016-10-21T01:15:52.564Z,8.55
2016-10-21T01:16:52.220Z,8.53
2016-10-21T01:17:52.182Z,8.55
2016-10-21T01:18:52.441Z,8.41
2016-10-21T01:19:52.404Z,8.53
2016-10-21T01:20:52.368Z,8.48
2016-10-21T01:21:52.329Z,8.41
2016-10-21T01:22:52.294Z,8.41
2016-10-21T01:23:52.256Z,8.45
2016-10-21T01:24:51.916Z,8.45
2016-10-21T01:25:52.177Z,8.47
2016-10-21T01:26:52.145Z,8.41
2016-10-21T01:27:52.102Z,8.52
2016-10-21T01:28:51.762Z,8.48
2016-10-21T01:29:52.024Z,8.48
2016-10-21T01:30:51.987Z,8.45
2016-10-21T01:31:51.955Z,8.52
2016-10-21T01:32:51.947Z,8.52
2016-10-21T01:33:51.574Z,8.41
2016-10-21T01:34:51.832Z,8.52
2016-10-21T01:35:51.496Z,8.4
2016-10-21T01:36:51.465Z,8.43
2016-10-21T01:37:51.416Z,8.5
2016-10-21T01:38:51.680Z,8.37
2016-10-21T01:39:51.638Z,8.45
2016-10-21T01:40:50.999Z,8.4
2016-10-21T01:41:51.568Z,8.47
2016-10-21T01:42:51.533Z,8.41
2016-10-21T01:43:51.492Z,8.45
2016-10-21T01:44:50.848Z,8.47
2016-10-21T01:45:51.425Z,8.43
2016-10-21T01:46:51.376Z,8.43
2016-10-21T01:47:51.338Z,8.44
2016-10-21T01:48:50.995Z,8.33
2016-10-21T01:49:51.261Z,8.45
2016-10-21T01:50:50.920Z,8.44
2016-10-21T01:51:51.179Z,8.43
2016-10-21T01:52:51.144Z,8.43
2016-10-21T01:53:51.110Z,8.41
2016-10-21T01:54:50.771Z,8.45
2016-10-21T01:55:50.729Z,8.48
2016-10-21T01:56:50.989Z,8.43
2016-10-21T01:57:50.963Z,8.47
2016-10-21T01:58:50.613Z,8.47
2016-10-21T01:59:50.882Z,8.44
2016-10-21T02:00:50.838Z,8.38
2016-10-21T02:01:50.497Z,8.44
2016-10-21T02:02:50.499Z,8.5
2016-10-21T02:03:50.421Z,8.5
2016-10-21T02:04:50.427Z,8.4
2016-10-21T02:05:50.661Z,8.44
2016-10-21T02:06:50.307Z,8.44
2016-10-21T02:07:50.268Z,8.47
2016-10-21T02:08:50.231Z,8.4
2016-10-21T02:09:49.897Z,8.4
2016-10-21T02:10:50.155Z,8.41
2016-10-21T02:11:50.419Z,8.45
2016-10-21T02:12:50.079Z,8.4
2016-10-21T02:13:50.341Z,8.5
2016-10-21T02:14:50.004Z,8.4
2016-10-21T02:15:50.301Z,8.45
2016-10-21T02:16:49.930Z,8.45
2016-10-21T02:17:50.188Z,8.41
2016-10-21T02:18:50.151Z,8.43
2016-10-21T02:19:50.119Z,8.4
2016-10-21T02:20:49.774Z,8.41
2016-10-21T02:21:50.039Z,8.44
2016-10-21T02:22:49.997Z,8.41
2016-10-21T02:23:49.660Z,8.44
2016-10-21T02:24:49.922Z,8.43
2016-10-21T02:25:49.883Z,8.43
2016-10-21T02:26:49.848Z,8.44
2016-10-21T02:27:49.818Z,8.44
2016-10-21T02:28:49.476Z,8.41
2016-10-21T02:29:49.428Z,8.44
2016-10-21T02:30:49.693Z,8.41
2016-10-21T02:31:49.665Z,8.4
2016-10-21T02:32:49.623Z,8.45
2016-10-21T02:33:49.581Z,8.45
2016-10-21T02:34:49.543Z,8.43
2016-10-21T02:35:49.503Z,8.43
2016-10-21T02:36:49.198Z,8.5
2016-10-21T02:37:49.132Z,8.55
2016-10-21T02:38:49.392Z,8.43
2016-10-21T02:39:49.360Z,8.47
2016-10-21T02:40:49.316Z,8.41
2016-10-21T02:41:49.281Z,8.48
2016-10-21T02:42:49.239Z,8.55
2016-10-21T02:43:49.201Z,8.41
2016-10-21T02:44:49.165Z,8.53
2016-10-21T02:45:49.124Z,8.58
2016-10-21T02:46:49.087Z,8.55
2016-10-21T02:47:48.743Z,8.52
2016-10-21T02:48:49.015Z,8.41
2016-10-21T02:49:48.369Z,8.5
2016-10-21T02:50:48.939Z,8.48
2016-10-21T02:51:48.594Z,8.56
2016-10-21T02:52:48.556Z,8.48
2016-10-21T02:53:48.512Z,8.53
2016-10-21T02:54:48.478Z,8.5
2016-10-21T02:55:48.441Z,8.48
2016-10-21T02:56:48.405Z,8.53
2016-10-21T02:57:48.664Z,8.53
2016-10-21T02:58:48.630Z,8.55
2016-10-21T02:59:48.589Z,8.53
2016-10-21T03:00:48.563Z,8.5
2016-10-21T03:01:48.516Z,8.48
2016-10-21T03:02:48.474Z,8.52
2016-10-21T03:03:48.437Z,8.53
2016-10-21T03:04:48.404Z,8.48
2016-10-21T03:05:48.367Z,8.47
2016-10-21T03:06:48.020Z,8.5
2016-10-21T03:07:48.288Z,8.56
2016-10-21T03:08:48.250Z,8.5
2016-10-21T03:09:48.212Z,8.52
2016-10-21T03:10:47.572Z,8.53
2016-10-21T03:11:48.135Z,8.56
2016-10-21T03:12:48.093Z,8.55
2016-10-21T03:13:48.055Z,8.52
2016-10-21T03:14:48.025Z,8.59
2016-10-21T03:15:47.980Z,8.52
2016-10-21T03:16:47.945Z,8.52
2016-10-21T03:17:47.607Z,8.52
2016-10-21T03:18:47.569Z,8.53
2016-10-21T03:19:47.830Z,8.5
2016-10-21T03:20:47.790Z,8.48
2016-10-21T03:21:47.753Z,8.5
2016-10-21T03:22:47.718Z,8.52
2016-10-21T03:23:47.675Z,8.53
2016-10-21T03:24:47.347Z,8.52
2016-10-21T03:25:47.600Z,8.48
2016-10-21T03:26:47.557Z,8.59
2016-10-21T03:27:47.525Z,8.55
2016-10-21T03:28:47.485Z,8.53
2016-10-21T03:29:46.845Z,8.5
2016-10-21T03:30:47.414Z,8.52
2016-10-21T03:31:47.070Z,8.53
2016-10-21T03:32:47.336Z,8.53
2016-10-21T03:33:47.297Z,8.45
2016-10-21T03:34:47.262Z,8.45
2016-10-21T03:35:47.235Z,8.37
2016-10-21T03:36:46.879Z,8.41
2016-10-21T03:37:47.144Z,8.5
2016-10-21T03:38:46.801Z,8.45
2016-10-21T03:39:46.468Z,8.41
2016-10-21T03:40:47.028Z,8.55
2016-10-21T03:41:46.991Z,8.41
2016-10-21T03:42:46.990Z,8.48
2016-10-21T03:43:46.916Z,8.45
2016-10-21T03:44:46.880Z,8.38
2016-10-21T03:45:46.841Z,8.38
2016-10-21T03:46:46.798Z,8.4
2016-10-21T03:47:46.460Z,8.52
2016-10-21T03:48:46.420Z,8.38
2016-10-21T03:49:46.380Z,8.44
2016-10-21T03:50:46.652Z,8.45
2016-10-21T03:51:46.617Z,8.44
2016-10-21T03:52:46.571Z,8.43
2016-10-21T03:53:46.228Z,8.4
2016-10-21T03:54:46.501Z,8.29
2016-10-21T03:55:46.191Z,8.36
2016-10-21T03:56:46.419Z,8.26
2016-10-21T03:57:46.382Z,8.37
2016-10-21T03:58:46.347Z,8.37
2016-10-21T03:59:46.005Z,8.26
2016-10-21T04:00:46.267Z,8.33
2016-10-21T04:01:46.231Z,8.37
2016-10-21T04:02:45.890Z,8.33
2016-10-21T04:03:46.193Z,8.23
2016-10-21T04:04:46.156Z,8.33
2016-10-21T04:05:46.074Z,8.26
2016-10-21T04:06:45.769Z,8.18
2016-10-21T04:07:45.692Z,8.3
2016-10-21T04:08:45.962Z,8.19
2016-10-21T04:09:45.317Z,8.2
2016-10-21T04:10:45.922Z,8.2
2016-10-21T04:11:45.884Z,8.22
2016-10-21T04:12:45.202Z,8.23
2016-10-21T04:13:45.502Z,8.25
2016-10-21T04:14:45.426Z,8.25
2016-10-21T04:15:45.691Z,8.28
2016-10-21T04:16:45.654Z,8.25
2016-10-21T04:17:45.612Z,8.23
2016-10-21T04:18:45.275Z,8.22
2016-10-21T04:19:45.541Z,8.2
2016-10-21T04:20:45.196Z,8.23
2016-10-21T04:21:45.160Z,8.23
2016-10-21T04:22:45.121Z,8.25
2016-10-21T04:23:45.120Z,8.25
2016-10-21T04:24:45.346Z,8.23
2016-10-21T04:25:45.313Z,8.23
2016-10-21T04:26:45.267Z,8.26
2016-10-21T04:27:45.231Z,8.23
2016-10-21T04:28:45.195Z,8.23
2016-10-21T04:29:44.850Z,8.2
2016-10-21T04:30:45.127Z,8.2
2016-10-21T04:31:45.078Z,8.2
2016-10-21T04:32:44.734Z,8.22
2016-10-21T04:33:44.703Z,8.23
2016-10-21T04:34:44.962Z,8.19
2016-10-21T04:35:44.623Z,8.22
2016-10-21T04:36:44.886Z,8.19
2016-10-21T04:37:44.548Z,8.2
2016-10-21T04:38:44.806Z,8.22
2016-10-21T04:39:44.772Z,8.16
2016-10-21T04:40:44.130Z,8.16
2016-10-21T04:41:44.390Z,8.18
2016-10-21T04:42:44.700Z,8.22
2016-10-21T04:43:44.615Z,8.16
2016-10-21T04:44:44.574Z,8.19
2016-10-21T04:45:44.555Z,8.16
2016-10-21T04:46:44.516Z,8.15
2016-10-21T04:47:44.463Z,8.22
2016-10-21T04:48:44.425Z,8.16
2016-10-21T04:49:44.382Z,8.16
2016-10-21T04:50:44.345Z,8.18
2016-10-21T04:51:44.009Z,8.16
2016-10-21T04:52:44.277Z,8.19
2016-10-21T04:53:44.233Z,8.19
2016-10-21T04:54:43.928Z,8.15
2016-10-21T04:55:44.160Z,8.07
2016-10-21T04:56:44.117Z,8.08
2016-10-21T04:57:44.076Z,8.07
2016-10-21T04:58:44.040Z,8.04
2016-10-21T04:59:44.001Z,8.07
2016-10-21T05:00:44.006Z,8.01
2016-10-21T05:01:43.960Z,8.02
2016-10-21T05:02:43.890Z,8.1
2016-10-21T05:03:43.853Z,8.1
2016-10-21T05:04:43.813Z,8.1
2016-10-21T05:05:43.770Z,8.05
2016-10-21T05:06:43.731Z,8.08
2016-10-21T05:07:43.730Z,8.02
2016-10-21T05:08:43.355Z,8.07
2016-10-21T05:09:43.619Z,8.05
2016-10-21T05:10:43.583Z,8.07
2016-10-21T05:11:42.936Z,8.1
2016-10-21T05:12:43.504Z,8.04
2016-10-21T05:13:43.163Z,8.07
2016-10-21T05:14:43.127Z,8.1
2016-10-21T05:15:43.389Z,8.04
2016-10-21T05:16:43.052Z,8.05
2016-10-21T05:17:43.311Z,8.07
2016-10-21T05:18:43.272Z,8.05
2016-10-21T05:19:43.234Z,8.05
2016-10-21T05:20:43.201Z,8.08
2016-10-21T05:21:43.167Z,8.11
2016-10-21T05:22:43.128Z,8.05
2016-10-21T05:23:43.076Z,8.08
2016-10-21T05:24:43.042Z,8.07
2016-10-21T05:25:42.702Z,8.11
2016-10-21T05:26:42.668Z,8.08
2016-10-21T05:27:42.927Z,8.05
2016-10-21T05:28:42.893Z,8.05
2016-10-21T05:29:42.847Z,8.11
2016-10-21T05:30:42.813Z,8.05
2016-10-21T05:31:42.473Z,8
2016-10-21T05:32:42.739Z,8.19
2016-10-21T05:33:42.437Z,8.16
2016-10-21T05:34:42.655Z,8.16
2016-10-21T05:35:42.325Z,8.1
2016-10-21T05:36:42.625Z,8.02
2016-10-21T05:37:42.546Z,8.07
2016-10-21T05:38:42.223Z,8.16
2016-10-21T05:39:41.867Z,8.02
2016-10-21T05:40:42.430Z,8.07
2016-10-21T05:41:42.398Z,8.19
2016-10-21T05:42:42.358Z,8.07
2016-10-21T05:43:42.013Z,8.12
2016-10-21T05:44:42.281Z,8.02
2016-10-21T05:45:42.238Z,8.07
2016-10-21T05:46:42.198Z,8.16
2016-10-21T05:47:41.866Z,8.07
2016-10-21T05:48:42.123Z,8.12
2016-10-21T05:49:42.082Z,8.18
2016-10-21T05:50:41.785Z,8.07
2016-10-21T05:51:42.007Z,8.07
2016-10-21T05:52:41.667Z,8.02
2016-10-21T05:53:41.932Z,8.15
2016-10-21T05:54:41.905Z,8.16
2016-10-21T05:55:41.858Z,8.01
2016-10-21T05:56:41.513Z,8.1
2016-10-21T05:57:41.898Z,8.12
2016-10-21T05:58:41.443Z,8.16
2016-10-21T05:59:41.697Z,8.12
2016-10-21T06:00:41.057Z,8.16
2016-10-21T06:01:41.627Z,8.07
2016-10-21T06:02:41.591Z,8.08
2016-10-21T06:03:41.543Z,8.02
2016-10-21T06:04:41.512Z,8.01
2016-10-21T06:05:41.171Z,8.04
2016-10-21T06:06:41.429Z,8.05
2016-10-21T06:07:41.434Z,8.07
2016-10-21T06:08:41.356Z,8.07
2016-10-21T06:09:41.317Z,8.07
2016-10-21T06:10:41.013Z,8.16
2016-10-21T06:11:40.937Z,8.16
2016-10-21T06:12:41.210Z,8.05
2016-10-21T06:13:40.869Z,8.02
2016-10-21T06:14:40.821Z,8.12
2016-10-21T06:15:40.787Z,8.16
2016-10-21T06:16:41.050Z,8.05
2016-10-21T06:17:41.008Z,8.07
2016-10-21T06:18:40.973Z,8.04
2016-10-21T06:19:40.932Z,8.08
2016-10-21T06:20:40.897Z,8.07
2016-10-21T06:21:40.859Z,8.05
2016-10-21T06:22:40.824Z,8.07
2016-10-21T06:23:40.485Z,8.1
2016-10-21T06:24:40.443Z,8.19
2016-10-21T06:25:40.400Z,8.19
2016-10-21T06:26:40.666Z,8.12
2016-10-21T06:27:40.623Z,8.18
2016-10-21T06:28:40.285Z,8.22
2016-10-21T06:29:40.550Z,8.2
2016-10-21T06:30:40.512Z,8.19
2016-10-21T06:31:40.472Z,8.22
2016-10-21T06:32:40.437Z,8.23
2016-10-21T06:33:40.096Z,8.19
2016-10-21T06:34:40.354Z,8.18
2016-10-21T06:35:40.317Z,8.22
2016-10-21T06:36:39.977Z,8.34
2016-10-21T06:37:40.248Z,8.22
2016-10-21T06:38:40.200Z,8.29
2016-10-21T06:39:40.170Z,8.22
2016-10-21T06:40:40.125Z,8.18
2016-10-21T06:41:40.084Z,8.33
2016-10-21T06:42:40.050Z,8.36
2016-10-21T06:43:40.014Z,8.28
2016-10-21T06:44:39.978Z,8.38
2016-10-21T06:45:39.983Z,8.33
2016-10-21T06:46:39.935Z,8.36
2016-10-21T06:47:39.862Z,8.36
2016-10-21T06:48:39.827Z,8.33
2016-10-21T06:49:39.783Z,8.3
2016-10-21T06:50:39.745Z,8.36
2016-10-21T06:51:39.708Z,8.33
2016-10-21T06:52:39.370Z,8.36
2016-10-21T06:53:39.329Z,8.41
2016-10-21T06:54:39.592Z,8.44
2016-10-21T06:55:39.250Z,8.44
2016-10-21T06:56:39.518Z,8.41
2016-10-21T06:57:39.186Z,8.45
2016-10-21T06:58:39.476Z,8.53
2016-10-21T06:59:39.397Z,8.38
2016-10-21T07:00:39.361Z,8.41
2016-10-21T07:01:39.326Z,8.4
2016-10-21T07:02:39.284Z,8.48
2016-10-21T07:03:39.248Z,8.44
2016-10-21T07:04:39.208Z,8.5
2016-10-21T07:05:39.175Z,8.45
2016-10-21T07:06:39.149Z,8.48
2016-10-21T07:07:39.106Z,8.45
2016-10-21T07:08:38.759Z,8.43
2016-10-21T07:09:39.020Z,8.48
2016-10-21T07:10:38.687Z,8.52
2016-10-21T07:11:38.942Z,8.55
2016-10-21T07:12:38.910Z,8.58
2016-10-21T07:13:38.862Z,8.56
2016-10-21T07:14:38.830Z,8.62
2016-10-21T07:15:38.798Z,8.62
2016-10-21T07:16:38.756Z,8.66
2016-10-21T07:17:38.722Z,8.68
2016-10-21T07:18:38.375Z,8.65
2016-10-21T07:19:38.644Z,8.77
2016-10-21T07:20:38.641Z,8.74
2016-10-21T07:21:38.264Z,8.74
2016-10-21T07:22:38.228Z,8.76
2016-10-21T07:23:38.489Z,8.81
2016-10-21T07:24:38.452Z,8.81
2016-10-21T07:25:38.110Z,8.77
2016-10-21T07:26:38.376Z,8.86
2016-10-21T07:27:38.375Z,8.86
2016-10-21T07:28:38.002Z,8.84
2016-10-21T07:29:38.269Z,8.86
2016-10-21T07:30:37.959Z,8.84
2016-10-21T07:31:38.183Z,8.96
2016-10-21T07:32:38.152Z,8.91
2016-10-21T07:33:38.109Z,8.96
2016-10-21T07:34:38.076Z,8.92
2016-10-21T07:35:38.034Z,8.89
2016-10-21T07:36:37.998Z,9.05
2016-10-21T07:37:37.656Z,8.98
2016-10-21T07:38:37.916Z,8.99
2016-10-21T07:39:37.886Z,9.08
2016-10-21T07:40:37.848Z,9.04
2016-10-21T07:41:37.201Z,9.04
2016-10-21T07:42:37.469Z,9.13
2016-10-21T07:43:37.729Z,9.13
2016-10-21T07:44:37.695Z,9.14
2016-10-21T07:45:37.351Z,9.23
2016-10-21T07:46:37.322Z,9.2
2016-10-21T07:47:37.582Z,9.11
2016-10-21T07:48:37.544Z,9.1
2016-10-21T07:49:37.519Z,9.15
2016-10-21T07:50:37.469Z,9.15
2016-10-21T07:51:37.437Z,9.11
2016-10-21T07:52:37.389Z,9.15
2016-10-21T07:53:37.358Z,9.13
2016-10-21T07:54:37.319Z,9.2
2016-10-21T07:55:37.277Z,9.21
2016-10-21T07:56:37.242Z,9.17
2016-10-21T07:57:37.205Z,9.28
2016-10-21T07:58:36.861Z,9.26
2016-10-21T07:59:36.825Z,9.29
2016-10-21T08:00:37.094Z,9.23
2016-10-21T08:01:36.754Z,9.31
2016-10-21T08:02:37.021Z,9.28
2016-10-21T08:03:36.980Z,9.28
2016-10-21T08:04:36.948Z,9.26
2016-10-21T08:05:36.600Z,9.33
2016-10-21T08:06:36.862Z,9.32
2016-10-21T08:07:36.826Z,9.21
2016-10-21T08:08:36.487Z,9.35
2016-10-21T08:09:36.754Z,9.39
2016-10-21T08:10:36.420Z,9.42
2016-10-21T08:11:36.375Z,9.4
2016-10-21T08:12:36.652Z,9.43
2016-10-21T08:13:36.642Z,9.43
2016-10-21T08:14:36.266Z,9.51
2016-10-21T08:15:36.526Z,9.53
2016-10-21T08:16:36.202Z,9.51
2016-10-21T08:17:36.451Z,9.54
2016-10-21T08:18:36.114Z,9.57
2016-10-21T08:19:36.382Z,9.66
2016-10-21T08:20:36.039Z,9.64
2016-10-21T08:21:36.306Z,9.64
2016-10-21T08:22:36.268Z,9.65
2016-10-21T08:23:35.931Z,9.71
2016-10-21T08:24:35.895Z,9.78
2016-10-21T08:25:35.556Z,9.83
2016-10-21T08:26:36.125Z,9.87
2016-10-21T08:27:35.790Z,9.76
2016-10-21T08:28:36.046Z,9.86
2016-10-21T08:29:35.708Z,9.91
2016-10-21T08:30:35.974Z,9.9
2016-10-21T08:31:35.629Z,9.89
2016-10-21T08:32:35.896Z,10.08
2016-10-21T08:33:35.860Z,10.05
2016-10-21T08:34:35.216Z,10.15
2016-10-21T08:35:35.782Z,10.17
2016-10-21T08:36:35.751Z,10.22
2016-10-21T08:37:35.709Z,10.27
2016-10-21T08:38:35.370Z,10.36
2016-10-21T08:39:35.634Z,10.34
2016-10-21T08:40:35.594Z,10.3
2016-10-21T08:41:35.561Z,10.34
2016-10-21T08:42:35.524Z,10.38
2016-10-21T08:43:35.184Z,10.3
2016-10-21T08:44:35.451Z,10.3
2016-10-21T08:45:35.418Z,10.42
2016-10-21T08:46:35.078Z,10.44
2016-10-21T08:47:35.341Z,10.48
2016-10-21T08:48:35.344Z,10.42
2016-10-21T08:49:35.265Z,10.45
2016-10-21T08:50:34.944Z,10.42
2016-10-21T08:51:34.892Z,10.41
2016-10-21T08:52:34.853Z,10.41
2016-10-21T08:53:34.824Z,10.33
2016-10-21T08:54:35.092Z,10.26
2016-10-21T08:55:35.052Z,10.22
2016-10-21T08:56:35.024Z,10.3
2016-10-21T08:57:34.675Z,10.33
2016-10-21T08:58:34.944Z,10.29
2016-10-21T08:59:34.603Z,10.29
2016-10-21T09:00:34.563Z,10.3
2016-10-21T09:01:34.829Z,10.34
2016-10-21T09:02:34.794Z,10.47
2016-10-21T09:03:34.803Z,10.48
2016-10-21T09:04:34.748Z,10.52
2016-10-21T09:05:34.681Z,10.48
2016-10-21T09:06:34.340Z,10.59
2016-10-21T09:07:34.613Z,10.51
2016-10-21T09:08:34.322Z,10.53
2016-10-21T09:09:34.234Z,10.51
2016-10-21T09:10:34.501Z,10.47
2016-10-21T09:11:34.459Z,10.53
2016-10-21T09:12:34.423Z,10.51
2016-10-21T09:13:34.390Z,10.51
2016-10-21T09:14:34.046Z,10.47
2016-10-21T09:15:34.318Z,10.55
2016-10-21T09:16:33.988Z,10.56
2016-10-21T09:17:33.934Z,10.53
2016-10-21T09:18:34.205Z,10.55
2016-10-21T09:19:34.169Z,10.55
2016-10-21T09:20:34.267Z,10.55
2016-10-21T09:21:34.103Z,10.6
2016-10-21T09:22:33.752Z,10.61
2016-10-21T09:23:33.716Z,10.56
2016-10-21T09:24:33.985Z,10.6
2016-10-21T09:25:33.952Z,10.59
2016-10-21T09:26:33.913Z,10.6
2016-10-21T09:27:33.572Z,10.6
2016-10-21T09:28:33.836Z,10.53
2016-10-21T09:29:33.798Z,10.59
2016-10-21T09:30:33.772Z,10.61
2016-10-21T09:31:33.727Z,10.6
2016-10-21T09:32:33.387Z,10.6
2016-10-21T09:33:33.676Z,10.55
2016-10-21T09:34:33.312Z,10.61
2016-10-21T09:35:33.280Z,10.66
2016-10-21T09:36:33.239Z,10.66
2016-10-21T09:37:33.510Z,10.66
2016-10-21T09:38:33.469Z,10.67
2016-10-21T09:39:33.435Z,10.63
2016-10-21T09:40:33.399Z,10.59
2016-10-21T09:41:33.368Z,10.55
2016-10-21T09:42:33.022Z,10.55
2016-10-21T09:43:32.989Z,10.47
2016-10-21T09:44:33.253Z,10.45
2016-10-21T09:45:33.240Z,10.38
2016-10-21T09:46:32.913Z,10.33
2016-10-21T09:47:32.543Z,10.27
2016-10-21T09:48:33.107Z,10.26
2016-10-21T09:49:33.069Z,10.29
2016-10-21T09:50:32.729Z,10.22
2016-10-21T09:51:32.995Z,10.29
2016-10-21T09:52:32.959Z,10.32
2016-10-21T09:53:32.663Z,10.27
2016-10-21T09:54:32.582Z,10.36
2016-10-21T09:55:32.546Z,10.34
2016-10-21T09:56:32.813Z,10.33
2016-10-21T09:57:32.477Z,10.34
2016-10-21T09:58:32.742Z,10.32
2016-10-21T09:59:32.711Z,10.3
2016-10-21T10:00:32.664Z,10.4
2016-10-21T10:01:32.623Z,10.36
2016-10-21T10:02:32.594Z,10.34
2016-10-21T10:03:32.251Z,10.29
2016-10-21T10:04:32.520Z,10.33
2016-10-21T10:05:32.478Z,10.22
2016-10-21T10:06:32.442Z,10.29
2016-10-21T10:07:32.409Z,10.22
2016-10-21T10:08:32.369Z,10.17
2016-10-21T10:09:32.029Z,10.18
2016-10-21T10:10:31.989Z,10.11
2016-10-21T10:11:32.257Z,10.15
2016-10-21T10:12:31.632Z,10.22
2016-10-21T10:13:32.181Z,10.14
2016-10-21T10:14:32.157Z,10.07
2016-10-21T10:15:32.108Z,10.15
2016-10-21T10:16:32.072Z,10.05
2016-10-21T10:17:32.033Z,10.17
2016-10-21T10:18:32.004Z,10.2
2016-10-21T10:19:31.659Z,10.17
2016-10-21T10:20:31.921Z,10.27
2016-10-21T10:21:31.886Z,10.12
2016-10-21T10:22:31.551Z,10.18
2016-10-21T10:23:31.510Z,10.25
2016-10-21T10:24:31.783Z,10.3
2016-10-21T10:25:31.136Z,10.29
2016-10-21T10:26:31.703Z,10.27
2016-10-21T10:27:31.673Z,10.38
2016-10-21T10:28:31.635Z,10.32
2016-10-21T10:29:31.597Z,10.41
2016-10-21T10:30:31.556Z,10.48
2016-10-21T10:31:31.524Z,10.42
2016-10-21T10:32:31.178Z,10.6
2016-10-21T10:33:31.449Z,10.59
2016-10-21T10:34:31.412Z,10.68
2016-10-21T10:35:31.375Z,10.67
2016-10-21T10:36:31.041Z,10.68
2016-10-21T10:37:31.300Z,10.66
2016-10-21T10:38:31.266Z,10.63
2016-10-21T10:39:30.932Z,10.67
2016-10-21T10:40:31.197Z,10.67
2016-10-21T10:41:31.156Z,10.76
2016-10-21T10:42:30.818Z,10.73
2016-10-21T10:43:31.085Z,10.76
2016-10-21T10:44:31.077Z,10.71
2016-10-21T10:45:30.708Z,10.82
2016-10-21T10:46:30.670Z,10.79
2016-10-21T10:47:30.933Z,10.73
2016-10-21T10:48:30.896Z,10.82
2016-10-21T10:49:30.859Z,10.79
2016-10-21T10:50:30.822Z,10.85
2016-10-21T10:51:30.787Z,10.82
2016-10-21T10:52:30.451Z,10.74
2016-10-21T10:53:30.717Z,10.68
2016-10-21T10:54:30.683Z,10.7
2016-10-21T10:55:30.033Z,10.76
2016-10-21T10:56:30.610Z,10.74
2016-10-21T10:57:30.575Z,10.84
2016-10-21T10:58:30.235Z,10.79
2016-10-21T10:59:30.492Z,10.84
2016-10-21T11:00:30.158Z,10.91
2016-10-21T11:01:30.122Z,10.99
2016-10-21T11:02:30.085Z,11.06
2016-10-21T11:03:30.048Z,11.14
2016-10-21T11:04:30.313Z,11.21
2016-10-21T11:05:30.277Z,11.28
2016-10-21T11:06:30.251Z,11.29
2016-10-21T11:07:29.904Z,11.29
2016-10-21T11:08:30.171Z,11.35
2016-10-21T11:09:30.138Z,11.4
2016-10-21T11:10:30.094Z,11.47
2016-10-21T11:11:30.066Z,11.51
2016-10-21T11:12:30.028Z,11.54
2016-10-21T11:13:29.987Z,11.67
2016-10-21T11:14:29.995Z,11.69
2016-10-21T11:15:29.915Z,11.64
2016-10-21T11:16:29.880Z,11.64
2016-10-21T11:17:29.546Z,11.61
2016-10-21T11:18:29.506Z,11.67
2016-10-21T11:19:29.774Z,11.65
2016-10-21T11:20:29.477Z,11.61
2016-10-21T11:21:29.702Z,11.6
2016-10-21T11:22:29.363Z,11.52
2016-10-21T11:23:29.637Z,11.55
2016-10-21T11:24:29.596Z,11.46
2016-10-21T11:25:29.603Z,11.58
2016-10-21T11:26:29.223Z,11.54
2016-10-21T11:27:29.487Z,11.6
2016-10-21T11:28:29.455Z,11.67
2016-10-21T11:29:29.415Z,11.67
2016-10-21T11:30:29.086Z,11.62
2016-10-21T11:31:29.346Z,11.55
2016-10-21T11:32:29.013Z,11.55
2016-10-21T11:33:29.279Z,11.49
2016-10-21T11:34:28.971Z,11.54
2016-10-21T11:35:29.207Z,11.64
2016-10-21T11:36:28.871Z,11.65
2016-10-21T11:37:29.128Z,11.82
2016-10-21T11:38:29.095Z,11.86
2016-10-21T11:39:28.757Z,11.96
2016-10-21T11:40:29.028Z,11.95
2016-10-21T11:41:29.026Z,11.94
2016-10-21T11:42:28.655Z,12.04
2016-10-21T11:43:28.916Z,12.04
2016-10-21T11:44:28.884Z,12.04
2016-10-21T11:45:28.850Z,12.1
2016-10-21T11:46:28.847Z,12.1
2016-10-21T11:47:28.812Z,12.01
2016-10-21T11:48:28.742Z,12.01
2016-10-21T11:49:28.703Z,12.04
2016-10-21T11:50:28.062Z,12.02
2016-10-21T11:51:28.638Z,11.94
2016-10-21T11:52:28.597Z,11.9
2016-10-21T11:53:28.257Z,11.83
2016-10-21T11:54:27.928Z,11.76
2016-10-21T11:55:28.491Z,11.7
2016-10-21T11:56:28.456Z,11.62
2016-10-21T11:57:28.416Z,11.61
2016-10-21T11:58:28.083Z,11.62
2016-10-21T11:59:28.354Z,11.69
2016-10-21T12:00:28.315Z,11.65
2016-10-21T12:01:28.019Z,11.57
2016-10-21T12:02:27.640Z,11.47
2016-10-21T12:03:27.607Z,11.46
2016-10-21T12:04:27.876Z,11.46
2016-10-21T12:05:27.838Z,11.46
2016-10-21T12:06:28.108Z,11.46
2016-10-21T12:07:28.069Z,11.47
2016-10-21T12:08:28.034Z,11.44
2016-10-21T12:09:28.005Z,11.51
2016-10-21T12:10:27.693Z,11.69
2016-10-21T12:11:27.926Z,11.64
2016-10-21T12:12:27.919Z,11.62
2016-10-21T12:13:27.591Z,11.62
2016-10-21T12:14:27.814Z,11.75
2016-10-21T12:15:27.799Z,11.69
2016-10-21T12:16:27.443Z,11.75
2016-10-21T12:17:27.707Z,11.62
2016-10-21T12:18:27.676Z,11.78
2016-10-21T12:19:27.335Z,11.76
2016-10-21T12:20:27.335Z,11.7
2016-10-21T12:21:27.566Z,11.76
2016-10-21T12:22:27.534Z,11.64
2016-10-21T12:23:27.194Z,11.57
2016-10-21T12:24:27.459Z,11.46
2016-10-21T12:25:27.121Z,11.44
2016-10-21T12:26:27.388Z,11.4
2016-10-21T12:27:27.349Z,11.39
2016-10-21T12:28:27.019Z,11.42
2016-10-21T12:29:27.278Z,11.33
2016-10-21T12:30:26.943Z,11.33
2016-10-21T12:31:27.207Z,11.18
2016-10-21T12:32:27.171Z,11.25
2016-10-21T12:33:27.134Z,11.28
2016-10-21T12:34:27.104Z,11.24
2016-10-21T12:35:27.067Z,11.19
2016-10-21T12:36:27.034Z,11.14
2016-10-21T12:37:26.694Z,11.04
2016-10-21T12:38:26.966Z,10.96
2016-10-21T12:39:26.623Z,10.99
2016-10-21T12:40:26.887Z,10.88
2016-10-21T12:41:26.851Z,10.81
2016-10-21T12:42:26.815Z,10.78
2016-10-21T12:43:26.778Z,10.74
2016-10-21T12:44:26.745Z,10.6
2016-10-21T12:45:26.401Z,10.51
2016-10-21T12:46:26.668Z,10.44
2016-10-21T12:47:26.634Z,10.26
2016-10-21T12:48:26.596Z,10.29
2016-10-21T12:49:26.562Z,10.32
2016-10-21T12:50:26.524Z,10.32
2016-10-21T12:51:26.186Z,10.47
2016-10-21T12:52:26.452Z,10.38
2016-10-21T12:53:25.806Z,10.3
2016-10-21T12:54:26.407Z,10.3
2016-10-21T12:55:26.340Z,10.32
2016-10-21T12:56:25.998Z,10.41
2016-10-21T12:57:26.266Z,10.48
2016-10-21T12:58:25.930Z,10.47
2016-10-21T12:59:26.194Z,10.52
2016-10-21T13:00:25.860Z,10.47
2016-10-21T13:01:26.128Z,10.52
2016-10-21T13:02:26.107Z,10.34
2016-10-21T13:03:25.751Z,10.32
2016-10-21T13:04:26.008Z,10.15
2016-10-21T13:05:25.977Z,10.12
2016-10-21T13:06:25.952Z,10.12
2016-10-21T13:07:25.652Z,10.08
2016-10-21T13:08:25.862Z,10.04
2016-10-21T13:09:25.830Z,9.94
2016-10-21T13:10:25.793Z,9.94
2016-10-21T13:11:25.758Z,9.87